Time;durP1;ratioP1;P1;durP2;ratioP2;P2;SDS_P1;SDS_P2;PMS_P1;PMS_P2;Temp;Humidity;BMP_temperature;BMP_pressure;BME280_temperature;BME280_humidity;BME280_pressure;Samples;Min_cycle;Max_cycle;Signal;HPM_P1;HPM_P2
2022/02/24 00:00:15;;;;;;;7.50;5.20;;;9.60;99.90;;;;;;5074302;28;20464;-69
2022/02/24 00:02:41;;;;;;;10.80;5.37;;;9.60;99.90;;;;;;5073721;28;20320;-68
2022/02/24 00:05:08;;;;;;;8.60;4.70;;;9.60;99.90;;;;;;5074724;28;20949;-68
2022/02/24 00:07:34;;;;;;;6.13;4.87;;;9.50;99.90;;;;;;5071783;28;20436;-68
2022/02/24 00:10:00;;;;;;;7.07;5.53;;;9.60;99.90;;;;;;5072325;28;20459;-68
2022/02/24 00:12:25;;;;;;;6.70;5.10;;;9.60;99.90;;;;;;5070064;28;20186;-68
2022/02/24 00:14:52;;;;;;;8.20;5.73;;;9.60;99.90;;;;;;5076547;28;20190;-68
2022/02/24 00:17:19;;;;;;;7.87;4.70;;;9.60;99.90;;;;;;5069895;28;20903;-68
2022/02/24 00:19:44;;;;;;;14.57;5.63;;;9.60;99.90;;;;;;5073103;28;20542;-68
2022/02/24 00:22:10;;;;;;;5.40;4.60;;;9.40;99.90;;;;;;5072523;28;21177;-68
2022/02/24 00:24:36;;;;;;;8.20;4.90;;;9.40;99.90;;;;;;5073028;28;20193;-68
2022/02/24 00:27:01;;;;;;;6.43;4.77;;;9.40;99.90;;;;;;5075128;28;20206;-67
2022/02/24 00:29:27;;;;;;;10.50;4.53;;;9.50;99.90;;;;;;5070908;28;20210;-76
2022/02/24 00:31:52;;;;;;;5.57;4.30;;;9.50;99.90;;;;;;5070856;28;20206;-75
2022/02/24 00:34:22;;;;;;;6.23;4.87;;;9.50;99.90;;;;;;5066072;28;20849;-76
2022/02/24 00:36:52;;;;;;;10.97;4.40;;;9.60;99.90;;;;;;5076930;28;20182;-76
2022/02/24 00:39:19;;;;;;;6.43;4.80;;;9.60;99.90;;;;;;5070524;28;20463;-76
2022/02/24 00:41:45;;;;;;;5.90;4.03;;;9.50;99.90;;;;;;5068505;28;20437;-75
2022/02/24 00:44:10;;;;;;;6.97;5.60;;;9.60;99.90;;;;;;5072533;28;21105;-78
2022/02/24 00:46:36;;;;;;;7.97;4.80;;;9.50;99.90;;;;;;5071402;28;20455;-68
2022/02/24 00:49:02;;;;;;;5.50;4.50;;;9.40;99.90;;;;;;5075446;28;20182;-67
2022/02/24 00:51:27;;;;;;;9.00;4.43;;;9.40;99.90;;;;;;5071499;28;20178;-68
2022/02/24 00:53:53;;;;;;;8.40;4.30;;;9.70;99.90;;;;;;5072408;28;20177;-68
2022/02/24 00:56:18;;;;;;;5.93;5.33;;;9.90;99.90;;;;;;5069001;28;20191;-68
2022/02/24 00:58:44;;;;;;;6.17;4.10;;;9.90;99.90;;;;;;5076438;28;20750;-68
2022/02/24 01:01:10;;;;;;;7.10;4.43;;;9.90;99.90;;;;;;5076302;28;20217;-69
2022/02/24 01:03:35;;;;;;;6.60;4.23;;;10.00;99.90;;;;;;5075761;28;20202;-68
2022/02/24 01:06:01;;;;;;;7.43;4.63;;;9.80;99.90;;;;;;5078449;28;20671;-68
2022/02/24 01:08:26;;;;;;;5.30;4.33;;;9.70;99.90;;;;;;5077609;28;20191;-68
2022/02/24 01:10:52;;;;;;;8.30;4.63;;;9.60;99.90;;;;;;5077114;28;20210;-68
2022/02/24 01:13:18;;;;;;;9.00;4.10;;;9.60;99.90;;;;;;5076850;28;20558;-68
2022/02/24 01:15:43;;;;;;;5.70;4.67;;;9.60;99.90;;;;;;5072359;28;20295;-68
2022/02/24 01:18:10;;;;;;;8.33;5.60;;;9.70;99.90;;;;;;5081196;28;20695;-68
2022/02/24 01:20:36;;;;;;;5.13;4.50;;;9.70;99.90;;;;;;5074504;28;20217;-68
2022/02/24 01:23:01;;;;;;;6.53;4.60;;;9.70;99.90;;;;;;5076068;28;20910;-68
2022/02/24 01:25:27;;;;;;;7.70;4.40;;;9.80;99.90;;;;;;5073875;28;20471;-68
2022/02/24 01:27:53;;;;;;;4.60;3.80;;;9.80;99.90;;;;;;5074047;28;20182;-68
2022/02/24 01:30:20;;;;;;;5.30;3.83;;;9.90;99.90;;;;;;5074810;28;20487;-69
2022/02/24 01:32:46;;;;;;;9.53;4.20;;;9.90;99.90;;;;;;5075851;28;20656;-67
2022/02/24 01:35:11;;;;;;;6.47;4.40;;;9.90;99.90;;;;;;5074429;28;20432;-68
2022/02/24 01:37:37;;;;;;;4.60;3.83;;;9.90;99.90;;;;;;5075397;28;20235;-67
2022/02/24 01:40:06;;;;;;;5.97;4.53;;;9.90;99.90;;;;;;5080932;28;20201;-67
2022/02/24 01:42:32;;;;;;;5.20;4.03;;;9.90;99.90;;;;;;5073118;28;20191;-68
2022/02/24 01:44:58;;;;;;;5.93;3.90;;;10.10;99.90;;;;;;5073571;28;20500;-67
2022/02/24 01:47:24;;;;;;;5.10;4.03;;;10.00;99.90;;;;;;5080792;28;20677;-68
2022/02/24 01:49:50;;;;;;;5.17;3.70;;;10.00;99.90;;;;;;5077931;28;20207;-68
2022/02/24 01:52:15;;;;;;;5.60;3.70;;;10.10;99.90;;;;;;5076367;28;20466;-68
2022/02/24 01:54:42;;;;;;;7.60;4.00;;;10.30;99.90;;;;;;5078602;28;20621;-67
2022/02/24 01:57:08;;;;;;;7.27;4.40;;;10.10;99.90;;;;;;5075969;28;20187;-66
2022/02/24 01:59:34;;;;;;;4.70;3.90;;;10.30;99.90;;;;;;5072042;28;20992;-66
2022/02/24 02:02:00;;;;;;;4.80;3.90;;;10.40;99.90;;;;;;5080272;28;20440;-67
2022/02/24 02:04:26;;;;;;;6.67;3.63;;;10.50;99.90;;;;;;5075135;28;20464;-69
2022/02/24 02:06:53;;;;;;;6.20;3.50;;;10.50;99.90;;;;;;5062058;28;21016;-69
2022/02/24 02:09:20;;;;;;;4.50;3.67;;;10.40;99.90;;;;;;5076362;28;20238;-68
2022/02/24 02:11:46;;;;;;;6.33;4.87;;;10.40;99.90;;;;;;5073524;28;20446;-66
2022/02/24 02:14:12;;;;;;;6.10;3.93;;;10.30;99.90;;;;;;5078619;28;20446;-67
2022/02/24 02:16:49;;;;;;;6.50;4.17;;;10.40;99.90;;;;;;5076343;28;20453;-67
2022/02/24 02:19:15;;;;;;;4.60;3.40;;;10.50;99.90;;;;;;5077626;28;20513;-67
2022/02/24 02:21:42;;;;;;;4.10;3.70;;;10.50;99.90;;;;;;5077095;28;20732;-67
2022/02/24 02:24:08;;;;;;;4.10;2.90;;;10.60;99.90;;;;;;5077588;28;20445;-67
2022/02/24 02:26:33;;;;;;;5.07;3.40;;;10.40;99.90;;;;;;5074688;28;20463;-68
2022/02/24 02:29:00;;;;;;;5.33;3.37;;;10.60;99.90;;;;;;5074334;28;20822;-68
2022/02/24 02:31:27;;;;;;;6.53;3.50;;;10.60;99.90;;;;;;5077543;28;20261;-67
2022/02/24 02:34:11;;;;;;;3.93;3.00;;;10.50;99.90;;;;;;5075332;28;20440;-67
2022/02/24 02:36:39;;;;;;;4.27;3.27;;;10.40;99.90;;;;;;5072014;28;20500;-69
2022/02/24 02:39:10;;;;;;;3.30;2.93;;;10.50;99.90;;;;;;5074911;28;20811;-69
2022/02/24 02:41:36;;;;;;;5.20;3.23;;;10.90;99.90;;;;;;5073807;28;20448;-69
2022/02/24 02:44:02;;;;;;;7.53;4.43;;;11.00;99.90;;;;;;5079828;28;20510;-69
2022/02/24 02:46:28;;;;;;;6.73;3.80;;;10.80;99.90;;;;;;5072720;28;20548;-68
2022/02/24 02:48:54;;;;;;;6.40;3.67;;;10.70;99.90;;;;;;5081040;28;20186;-68
2022/02/24 02:51:20;;;;;;;6.53;3.60;;;10.50;99.90;;;;;;5074728;28;20266;-69
2022/02/24 02:53:46;;;;;;;8.10;3.67;;;10.60;99.90;;;;;;5073736;28;20437;-68
2022/02/24 02:56:12;;;;;;;6.67;4.07;;;10.60;99.90;;;;;;5060894;28;20178;-68
2022/02/24 02:58:38;;;;;;;6.20;4.10;;;10.20;99.90;;;;;;5076107;28;20463;-69
2022/02/24 03:01:04;;;;;;;7.60;4.30;;;10.10;99.90;;;;;;5076851;28;20555;-69
2022/02/24 03:03:30;;;;;;;6.40;4.10;;;10.00;99.90;;;;;;5072413;28;20486;-69
2022/02/24 03:05:57;;;;;;;4.97;4.23;;;10.00;99.90;;;;;;5076439;28;20976;-70
2022/02/24 03:08:22;;;;;;;4.17;3.77;;;10.20;99.90;;;;;;5074895;28;21044;-68
2022/02/24 03:10:49;;;;;;;9.60;3.87;;;10.20;99.90;;;;;;5054059;28;20460;-68
2022/02/24 03:13:15;;;;;;;6.37;3.90;;;9.80;99.90;;;;;;5075261;28;20676;-68
2022/02/24 03:15:42;;;;;;;5.40;4.00;;;9.90;99.90;;;;;;5072449;28;20491;-68
2022/02/24 03:18:08;;;;;;;8.53;4.40;;;10.00;99.90;;;;;;5076127;28;20436;-68
2022/02/24 03:20:34;;;;;;;5.00;3.70;;;9.80;99.90;;;;;;5075138;28;20460;-68
2022/02/24 03:23:01;;;;;;;6.33;3.43;;;9.70;99.90;;;;;;5073385;28;20441;-68
2022/02/24 03:25:27;;;;;;;4.20;3.50;;;9.70;99.90;;;;;;5073622;28;20229;-68
2022/02/24 03:27:54;;;;;;;3.83;2.90;;;9.80;99.90;;;;;;5077170;28;20476;-67
2022/02/24 03:30:20;;;;;;;4.43;3.67;;;9.60;99.90;;;;;;5074371;28;20460;-68
2022/02/24 03:32:46;;;;;;;5.63;4.50;;;9.80;99.90;;;;;;5074638;28;20537;-68
2022/02/24 03:35:12;;;;;;;4.10;3.33;;;9.70;99.90;;;;;;5072802;28;20527;-68
2022/02/24 03:37:39;;;;;;;7.40;4.17;;;9.80;99.90;;;;;;5073069;28;20620;-68
2022/02/24 03:40:06;;;;;;;7.47;3.63;;;9.60;99.90;;;;;;5077264;28;21143;-69
2022/02/24 03:42:32;;;;;;;5.40;3.60;;;9.70;99.90;;;;;;5075330;28;20969;-68
2022/02/24 03:44:58;;;;;;;5.17;3.93;;;9.50;99.90;;;;;;5074077;28;20440;-69
2022/02/24 03:47:24;;;;;;;8.00;3.90;;;9.40;99.90;;;;;;5072731;28;20500;-68
2022/02/24 03:49:51;;;;;;;5.03;3.30;;;9.50;99.90;;;;;;5076259;28;20476;-68
2022/02/24 03:52:17;;;;;;;5.10;3.90;;;9.40;99.90;;;;;;5077699;28;20436;-68
2022/02/24 03:54:43;;;;;;;10.43;3.60;;;9.40;99.90;;;;;;5071615;28;20814;-69
2022/02/24 03:57:09;;;;;;;4.83;3.30;;;9.50;99.90;;;;;;5073228;28;21004;-68
2022/02/24 03:59:35;;;;;;;5.20;3.93;;;9.60;99.90;;;;;;5073036;28;20484;-68
2022/02/24 04:02:01;;;;;;;4.97;3.53;;;9.50;99.90;;;;;;5077213;28;20198;-68
2022/02/24 04:04:26;;;;;;;3.87;3.50;;;9.70;99.90;;;;;;5075371;28;20494;-69
2022/02/24 04:06:52;;;;;;;4.47;3.57;;;9.50;99.90;;;;;;5072942;28;20762;-68
2022/02/24 04:09:17;;;;;;;8.30;3.80;;;9.50;99.90;;;;;;5076476;28;20608;-68
2022/02/24 04:11:43;;;;;;;5.30;3.50;;;9.30;99.90;;;;;;5074034;28;20190;-68
2022/02/24 04:14:08;;;;;;;4.70;3.63;;;9.20;99.90;;;;;;5075922;28;20186;-68
2022/02/24 04:16:34;;;;;;;6.07;3.77;;;9.20;99.90;;;;;;5073944;28;20182;-67
2022/02/24 04:19:00;;;;;;;5.40;3.20;;;9.40;99.90;;;;;;5077088;28;20271;-67
2022/02/24 04:21:26;;;;;;;5.40;3.20;;;9.30;99.90;;;;;;5074593;28;20257;-67
2022/02/24 04:23:53;;;;;;;5.63;4.00;;;9.50;99.90;;;;;;5069854;28;20452;-69
2022/02/24 04:26:18;;;;;;;7.03;3.37;;;9.50;99.90;;;;;;5070200;28;20735;-67
2022/02/24 04:28:44;;;;;;;6.17;3.40;;;9.60;99.90;;;;;;5072270;28;20494;-67
2022/02/24 04:31:10;;;;;;;4.93;3.53;;;9.60;99.90;;;;;;5076206;28;20206;-67
2022/02/24 04:33:35;;;;;;;4.50;3.37;;;9.40;99.90;;;;;;5076685;28;20183;-67
2022/02/24 04:36:01;;;;;;;7.67;3.63;;;9.20;99.90;;;;;;5074987;28;20201;-67
2022/02/24 04:38:26;;;;;;;5.13;3.80;;;9.40;99.90;;;;;;5080990;28;20193;-67
2022/02/24 04:40:52;;;;;;;4.77;2.80;;;9.40;99.90;;;;;;5078218;28;20214;-68
2022/02/24 04:43:17;;;;;;;8.23;3.60;;;9.40;99.90;;;;;;5085661;28;20233;-68
2022/02/24 04:45:43;;;;;;;6.37;3.60;;;9.30;99.90;;;;;;5078544;28;20290;-67
2022/02/24 04:48:10;;;;;;;4.23;3.33;;;9.20;99.90;;;;;;5078646;28;20864;-68
2022/02/24 04:50:36;;;;;;;4.67;3.30;;;9.20;99.90;;;;;;5080854;28;20194;-68
2022/02/24 04:53:02;;;;;;;6.90;3.70;;;9.40;99.90;;;;;;5079577;28;20488;-68
2022/02/24 04:55:27;;;;;;;4.20;3.10;;;9.30;99.90;;;;;;5082316;28;20194;-68
2022/02/24 04:57:53;;;;;;;4.07;3.23;;;9.30;99.90;;;;;;5078012;28;20258;-69
2022/02/24 05:00:18;;;;;;;5.37;3.63;;;9.40;99.90;;;;;;5080078;28;20232;-67
2022/02/24 05:02:44;;;;;;;4.40;3.57;;;9.30;99.90;;;;;;5075185;28;20764;-68
2022/02/24 05:05:10;;;;;;;4.43;3.43;;;9.40;99.90;;;;;;5079434;28;21410;-68
2022/02/24 05:07:36;;;;;;;4.30;3.80;;;9.70;99.90;;;;;;5082289;28;20204;-68
2022/02/24 05:10:03;;;;;;;4.70;3.80;;;9.60;99.90;;;;;;5079752;28;20491;-68
2022/02/24 05:12:28;;;;;;;6.50;3.70;;;9.60;99.90;;;;;;5077224;28;20174;-68
2022/02/24 05:14:54;;;;;;;6.53;3.87;;;9.80;99.90;;;;;;5077653;28;20778;-70
2022/02/24 05:17:20;;;;;;;6.30;4.73;;;9.50;99.90;;;;;;5080910;28;20198;-68
2022/02/24 05:19:45;;;;;;;6.13;4.00;;;9.30;99.90;;;;;;5077682;28;20463;-67
2022/02/24 05:22:11;;;;;;;4.97;3.80;;;9.60;99.90;;;;;;5083340;28;21438;-68
2022/02/24 05:24:36;;;;;;;5.33;4.20;;;9.40;99.90;;;;;;5081873;28;20190;-68
2022/02/24 05:27:02;;;;;;;8.67;3.93;;;9.30;99.90;;;;;;5079806;28;20738;-68
2022/02/24 05:29:28;;;;;;;6.73;4.03;;;9.40;99.90;;;;;;5078236;28;20211;-68
2022/02/24 05:31:53;;;;;;;4.37;3.60;;;9.50;99.90;;;;;;5083193;28;20213;-68
2022/02/24 05:34:19;;;;;;;4.20;3.33;;;9.60;99.90;;;;;;5078041;28;20581;-68
2022/02/24 05:36:44;;;;;;;4.30;3.77;;;9.50;99.90;;;;;;5079572;28;20244;-68
2022/02/24 05:39:11;;;;;;;4.03;3.40;;;9.30;99.90;;;;;;5078235;28;20891;-68
2022/02/24 05:41:36;;;;;;;8.13;3.87;;;9.40;99.90;;;;;;5081339;28;20174;-68
2022/02/24 05:44:03;;;;;;;4.50;3.50;;;9.30;99.90;;;;;;5077272;28;20437;-68
2022/02/24 05:46:28;;;;;;;4.60;3.87;;;9.30;99.90;;;;;;5076237;28;20213;-68
2022/02/24 05:48:57;;;;;;;6.63;4.00;;;9.10;99.90;;;;;;5077233;28;20428;-68
2022/02/24 05:51:22;;;;;;;6.83;4.27;;;9.20;99.90;;;;;;5077052;28;20261;-68
2022/02/24 05:53:48;;;;;;;6.17;3.80;;;9.20;99.90;;;;;;5071988;28;21067;-69
2022/02/24 05:56:13;;;;;;;6.97;4.80;;;9.40;99.90;;;;;;5073262;28;20197;-67
2022/02/24 05:58:39;;;;;;;5.97;3.93;;;9.40;99.90;;;;;;5072921;28;21205;-68
2022/02/24 06:01:05;;;;;;;6.73;4.07;;;9.40;99.90;;;;;;5070632;28;20229;-69
2022/02/24 06:03:31;;;;;;;7.23;3.97;;;9.30;99.90;;;;;;5071988;28;20194;-68
2022/02/24 06:05:57;;;;;;;4.23;3.77;;;9.30;99.90;;;;;;5071296;28;20472;-68
2022/02/24 06:08:24;;;;;;;4.77;3.67;;;9.30;99.90;;;;;;5074872;28;20184;-70
2022/02/24 06:10:50;;;;;;;5.90;4.10;;;9.20;99.90;;;;;;5071199;28;20472;-68
2022/02/24 06:13:16;;;;;;;6.80;3.73;;;9.10;99.90;;;;;;5079157;28;20444;-69
2022/02/24 06:15:41;;;;;;;5.17;3.73;;;9.00;99.90;;;;;;5075643;28;20428;-69
2022/02/24 06:18:08;;;;;;;3.73;3.37;;;9.30;99.90;;;;;;5071392;28;20248;-69
2022/02/24 06:20:34;;;;;;;7.10;3.63;;;9.30;99.90;;;;;;5080163;28;20217;-69
2022/02/24 06:23:00;;;;;;;6.20;4.53;;;9.40;99.90;;;;;;5074406;28;20488;-70
2022/02/24 06:25:25;;;;;;;4.30;3.70;;;9.50;99.90;;;;;;5076971;28;20441;-70
2022/02/24 06:27:51;;;;;;;7.83;4.07;;;9.80;99.90;;;;;;5073604;28;20563;-69
2022/02/24 06:30:17;;;;;;;6.00;4.40;;;9.80;99.90;;;;;;5073098;28;20202;-70
2022/02/24 06:32:42;;;;;;;4.90;4.03;;;10.00;99.90;;;;;;5077489;28;20196;-69
2022/02/24 06:35:09;;;;;;;6.40;4.17;;;9.90;99.90;;;;;;5076880;28;20190;-69
2022/02/24 06:37:35;;;;;;;4.00;3.50;;;9.90;99.90;;;;;;5073128;28;20198;-69
2022/02/24 06:40:01;;;;;;;7.57;4.10;;;10.10;99.90;;;;;;5071031;28;20464;-69
2022/02/24 06:42:27;;;;;;;6.07;4.33;;;9.80;99.90;;;;;;5071167;28;20193;-69
2022/02/24 06:44:52;;;;;;;7.10;4.53;;;9.60;99.90;;;;;;5075164;28;20468;-69
2022/02/24 06:47:18;;;;;;;6.87;4.03;;;9.60;99.90;;;;;;5072760;28;20206;-69
2022/02/24 06:49:44;;;;;;;8.03;4.20;;;9.70;99.90;;;;;;5072755;28;20218;-69
2022/02/24 06:52:10;;;;;;;8.87;4.27;;;9.40;99.90;;;;;;5070165;28;20195;-69
2022/02/24 06:54:35;;;;;;;7.43;4.70;;;9.60;99.90;;;;;;5076528;28;20241;-69
2022/02/24 06:57:06;;;;;;;7.83;4.27;;;9.60;99.90;;;;;;5071462;28;21034;-68
2022/02/24 06:59:35;;;;;;;5.97;4.33;;;9.50;99.90;;;;;;5071371;28;20203;-69
2022/02/24 07:02:01;;;;;;;4.30;3.70;;;9.30;99.90;;;;;;5073479;28;20456;-69
2022/02/24 07:04:27;;;;;;;7.23;3.87;;;9.30;99.90;;;;;;5071652;28;20537;-69
2022/02/24 07:06:52;;;;;;;7.50;3.70;;;9.40;99.90;;;;;;5069239;28;21502;-69
2022/02/24 07:09:18;;;;;;;8.10;4.27;;;9.70;99.90;;;;;;5071440;28;20214;-69
2022/02/24 07:11:43;;;;;;;4.47;3.60;;;9.60;99.90;;;;;;5071908;28;20232;-68
2022/02/24 07:14:09;;;;;;;5.50;3.77;;;9.70;99.90;;;;;;5069770;28;20260;-68
2022/02/24 07:16:35;;;;;;;8.03;3.30;;;9.50;99.90;;;;;;5070316;28;20190;-68
2022/02/24 07:19:02;;;;;;;5.20;3.70;;;9.50;99.90;;;;;;5069126;28;20205;-68
2022/02/24 07:21:28;;;;;;;4.17;3.60;;;9.30;99.90;;;;;;5055291;28;20444;-68
2022/02/24 07:23:53;;;;;;;5.83;4.33;;;9.40;99.90;;;;;;5068252;28;20944;-68
2022/02/24 07:26:19;;;;;;;4.93;3.77;;;9.30;99.90;;;;;;5082702;28;20353;-67
2022/02/24 07:28:45;;;;;;;4.43;3.27;;;9.30;99.90;;;;;;5071476;28;20191;-68
2022/02/24 07:31:14;;;;;;;8.07;3.87;;;9.40;99.90;;;;;;5070724;28;20209;-67
2022/02/24 07:33:41;;;;;;;4.70;3.50;;;9.30;99.90;;;;;;5069654;28;20444;-67
2022/02/24 07:36:06;;;;;;;4.50;3.67;;;9.00;99.90;;;;;;5067514;28;20475;-69
2022/02/24 07:38:32;;;;;;;4.00;3.60;;;9.00;99.90;;;;;;5071035;28;20527;-69
2022/02/24 07:40:57;;;;;;;4.70;3.80;;;9.20;99.90;;;;;;5069881;28;20237;-69
2022/02/24 07:43:23;;;;;;;7.40;4.00;;;9.10;99.90;;;;;;5059250;28;20202;-68
2022/02/24 07:45:48;;;;;;;6.10;3.83;;;9.40;99.90;;;;;;5071671;28;20320;-71
2022/02/24 07:48:14;;;;;;;6.23;3.47;;;9.40;99.90;;;;;;5069018;28;20687;-69
2022/02/24 07:50:40;;;;;;;6.77;3.60;;;9.60;99.90;;;;;;5082140;28;20279;-68
2022/02/24 07:53:05;;;;;;;5.33;3.57;;;9.40;99.90;;;;;;5072844;28;20217;-66
2022/02/24 07:55:31;;;;;;;5.13;3.50;;;9.30;99.90;;;;;;5069362;28;20195;-67
2022/02/24 07:57:57;;;;;;;6.50;3.10;;;9.50;99.90;;;;;;5068815;28;20277;-67
2022/02/24 08:00:23;;;;;;;4.70;3.70;;;9.30;99.90;;;;;;5064812;28;20221;-68
2022/02/24 08:02:51;;;;;;;5.70;4.73;;;9.20;99.90;;;;;;5068627;28;20194;-67
2022/02/24 08:05:17;;;;;;;6.93;3.97;;;9.10;99.90;;;;;;5066948;28;20473;-68
2022/02/24 08:07:45;;;;;;;5.80;3.23;;;9.30;99.90;;;;;;5066930;28;20986;-67
2022/02/24 08:10:11;;;;;;;6.43;3.93;;;9.30;99.90;;;;;;5065618;28;20974;-69
2022/02/24 08:12:39;;;;;;;7.53;4.20;;;9.20;99.90;;;;;;5053601;28;21155;-68
2022/02/24 08:15:07;;;;;;;5.23;4.23;;;9.20;99.90;;;;;;5067778;28;20195;-68
2022/02/24 08:17:33;;;;;;;4.80;4.30;;;9.20;99.90;;;;;;5063993;28;20445;-69
2022/02/24 08:19:59;;;;;;;5.00;3.70;;;9.30;99.90;;;;;;5071040;28;20467;-70
2022/02/24 08:22:25;;;;;;;3.90;3.50;;;9.30;99.90;;;;;;5068757;28;20462;-69
2022/02/24 08:24:51;;;;;;;5.20;3.90;;;9.30;99.90;;;;;;5069142;28;20631;-68
2022/02/24 08:27:17;;;;;;;4.50;3.43;;;9.20;99.90;;;;;;5067961;28;20477;-67
2022/02/24 08:29:42;;;;;;;6.97;4.90;;;9.20;99.90;;;;;;5070338;28;20611;-67
2022/02/24 08:32:08;;;;;;;7.87;4.70;;;9.20;99.90;;;;;;5070235;28;20443;-67
2022/02/24 08:34:33;;;;;;;8.63;4.40;;;9.10;99.90;;;;;;5067218;28;20187;-67
2022/02/24 08:36:59;;;;;;;4.37;3.97;;;9.10;99.90;;;;;;5069229;28;20209;-68
2022/02/24 08:39:24;;;;;;;4.97;3.40;;;9.10;99.90;;;;;;5068788;28;20210;-69
2022/02/24 08:41:50;;;;;;;5.80;4.40;;;9.10;99.90;;;;;;5072294;28;20178;-69
2022/02/24 08:44:18;;;;;;;3.97;3.50;;;9.30;99.90;;;;;;5068755;28;20639;-70
2022/02/24 08:46:44;;;;;;;6.53;4.33;;;9.40;99.90;;;;;;5076058;28;20479;-68
2022/02/24 08:49:09;;;;;;;6.30;4.10;;;9.40;99.90;;;;;;5072705;28;20808;-68
2022/02/24 08:51:35;;;;;;;6.93;4.00;;;9.40;99.90;;;;;;5070905;28;20270;-70
2022/02/24 08:54:01;;;;;;;5.50;4.20;;;9.40;99.90;;;;;;5073719;28;21001;-68
2022/02/24 08:56:27;;;;;;;6.03;3.77;;;9.60;99.90;;;;;;5069166;28;20481;-68
2022/02/24 08:58:53;;;;;;;13.20;3.63;;;9.60;99.90;;;;;;5070790;28;20436;-70
2022/02/24 09:01:18;;;;;;;3.33;3.00;;;9.70;99.90;;;;;;5070517;28;20234;-67
2022/02/24 09:03:44;;;;;;;4.93;3.53;;;9.70;99.90;;;;;;5071737;28;20638;-69
2022/02/24 09:06:11;;;;;;;5.30;4.10;;;9.70;99.90;;;;;;5072960;28;20207;-69
2022/02/24 09:08:37;;;;;;;5.40;3.60;;;9.70;99.90;;;;;;5071678;28;20555;-70
2022/02/24 09:11:03;;;;;;;4.90;3.90;;;9.70;99.90;;;;;;5054592;28;20480;-69
2022/02/24 09:13:28;;;;;;;6.23;3.83;;;9.70;99.90;;;;;;5057341;28;20547;-68
2022/02/24 09:15:54;;;;;;;4.67;3.20;;;9.70;99.90;;;;;;5073111;28;20233;-67
2022/02/24 09:18:20;;;;;;;6.13;3.70;;;9.80;99.90;;;;;;5068685;28;20186;-66
2022/02/24 09:20:45;;;;;;;4.20;3.03;;;10.00;99.90;;;;;;5080664;28;20831;-68
2022/02/24 09:23:11;;;;;;;6.83;3.77;;;10.20;99.90;;;;;;5077996;28;20190;-67
2022/02/24 09:25:37;;;;;;;4.33;3.93;;;10.20;99.90;;;;;;5075988;28;20597;-69
2022/02/24 09:28:03;;;;;;;6.07;4.13;;;10.20;99.90;;;;;;5080200;28;20210;-67
2022/02/24 09:30:29;;;;;;;4.37;3.40;;;10.30;99.90;;;;;;5074483;28;21016;-72
2022/02/24 09:32:55;;;;;;;4.73;4.03;;;10.30;99.90;;;;;;5056464;28;20190;-73
2022/02/24 09:35:23;;;;;;;5.23;3.70;;;10.40;99.90;;;;;;5075020;28;20213;-72
2022/02/24 09:37:49;;;;;;;4.40;3.60;;;10.60;99.90;;;;;;5060720;28;20448;-72
2022/02/24 09:40:15;;;;;;;6.00;3.73;;;10.60;99.90;;;;;;5076383;28;20851;-72
2022/02/24 09:42:42;;;;;;;5.40;3.90;;;10.60;99.90;;;;;;5072506;28;20198;-72
2022/02/24 09:45:08;;;;;;;3.90;3.47;;;10.70;99.90;;;;;;5076508;28;20178;-72
2022/02/24 09:47:38;;;;;;;5.43;3.77;;;10.80;99.90;;;;;;5055144;28;20475;-70
2022/02/24 09:50:04;;;;;;;4.20;3.73;;;10.80;99.90;;;;;;5046263;28;20980;-71
2022/02/24 09:52:30;;;;;;;9.00;4.20;;;11.00;99.90;;;;;;5077492;28;20420;-68
2022/02/24 09:54:55;;;;;;;5.43;3.57;;;10.90;99.90;;;;;;5079608;28;20432;-69
2022/02/24 09:57:21;;;;;;;7.43;3.70;;;11.00;99.90;;;;;;5054807;28;20222;-70
2022/02/24 09:59:47;;;;;;;4.87;3.97;;;11.00;99.90;;;;;;5072780;28;20262;-72
2022/02/24 10:02:13;;;;;;;4.57;3.80;;;11.00;99.90;;;;;;5076759;28;20183;-70
2022/02/24 10:05:09;;;;;;;3.37;3.03;;;11.20;99.90;;;;;;5072990;28;20197;-71
2022/02/24 10:07:37;;;;;;;4.30;3.13;;;11.40;99.90;;;;;;5076979;28;20544;-70
2022/02/24 10:10:33;;;;;;;7.10;3.13;;;11.50;99.90;;;;;;5070471;28;20462;-69
2022/02/24 10:13:13;;;;;;;4.43;2.60;;;11.50;99.90;;;;;;5056267;28;21031;-71
2022/02/24 10:15:51;;;;;;;3.57;2.73;;;11.60;99.90;;;;;;5072336;28;20428;-70
2022/02/24 10:18:18;;;;;;;7.80;2.97;;;11.80;99.90;;;;;;5075015;28;20595;-70
2022/02/24 10:20:50;;;;;;;4.93;2.43;;;11.90;99.90;;;;;;5074838;28;20449;-68
2022/02/24 10:23:18;;;;;;;5.63;3.13;;;12.00;99.90;;;;;;5078514;28;20459;-69
2022/02/24 10:25:50;;;;;;;3.50;2.73;;;12.00;99.90;;;;;;5072262;28;20518;-71
2022/02/24 10:28:38;;;;;;;4.50;2.53;;;12.10;99.90;;;;;;5068622;28;20443;-70
2022/02/24 10:31:12;;;;;;;5.70;2.50;;;12.10;99.90;;;;;;5089051;22;20491;-72
2022/02/24 10:33:40;;;;;;;5.53;3.00;;;12.10;99.90;;;;;;5062865;28;20451;-73
2022/02/24 10:36:21;;;;;;;3.30;2.73;;;12.20;99.90;;;;;;5057997;28;20652;-71
2022/02/24 10:39:00;;;;;;;3.70;2.80;;;12.20;99.90;;;;;;5075262;28;20810;-71
2022/02/24 10:41:44;;;;;;;3.70;2.40;;;12.30;99.90;;;;;;5073522;28;20551;-72
2022/02/24 10:44:24;;;;;;;3.70;2.80;;;12.40;99.90;;;;;;5073783;28;20894;-72
2022/02/24 10:47:12;;;;;;;3.90;2.60;;;12.50;99.90;;;;;;5071917;28;21000;-74
2022/02/24 10:49:41;;;;;;;6.00;3.20;;;12.60;99.90;;;;;;5077158;28;20448;-73
2022/02/24 10:52:15;;;;;;;5.00;3.03;;;12.50;99.90;;;;;;5076067;28;21183;-72
2022/02/24 10:54:56;;;;;;;5.00;3.30;;;12.50;99.90;;;;;;5077044;28;20493;-74
2022/02/24 10:57:25;;;;;;;3.20;2.37;;;12.40;99.90;;;;;;5077947;28;20428;-72
2022/02/24 10:59:53;;;;;;;3.60;2.97;;;12.40;99.90;;;;;;5077875;28;20446;-72
2022/02/24 11:02:20;;;;;;;4.73;2.90;;;12.50;99.90;;;;;;5075757;28;20483;-71
2022/02/24 11:04:46;;;;;;;6.97;3.27;;;12.50;99.90;;;;;;5073882;28;20513;-74
2022/02/24 11:07:12;;;;;;;4.30;3.20;;;12.50;99.90;;;;;;5075918;28;20977;-72
2022/02/24 11:09:41;;;;;;;4.50;3.30;;;12.50;99.90;;;;;;5075288;28;20520;-72
2022/02/24 11:12:10;;;;;;;4.10;3.33;;;12.40;99.90;;;;;;5077205;28;20197;-74
2022/02/24 11:14:39;;;;;;;5.40;3.20;;;12.60;99.90;;;;;;5075687;28;20485;-74
2022/02/24 11:17:06;;;;;;;10.30;4.07;;;12.70;99.90;;;;;;5074636;28;20924;-72
2022/02/24 11:19:35;;;;;;;8.33;2.73;;;12.70;99.90;;;;;;5076234;28;20552;-73
2022/02/24 11:22:01;;;;;;;5.50;3.20;;;12.70;99.90;;;;;;5072847;28;20463;-73
2022/02/24 11:24:27;;;;;;;3.33;2.60;;;12.70;99.90;;;;;;5076113;28;20842;-73
2022/02/24 11:26:55;;;;;;;3.53;2.90;;;12.80;99.90;;;;;;5076103;28;20469;-73
2022/02/24 11:29:50;;;;;;;3.57;2.27;;;12.80;99.90;;;;;;5076715;28;20277;-73
2022/02/24 11:32:22;;;;;;;4.73;2.40;;;12.80;99.90;;;;;;5074902;28;20612;-73
2022/02/24 11:35:07;;;;;;;6.07;2.90;;;12.80;99.90;;;;;;5078915;28;20597;-75
2022/02/24 11:37:38;;;;;;;5.37;2.63;;;12.80;99.90;;;;;;5081280;28;20428;-74
2022/02/24 11:40:19;;;;;;;4.53;2.97;;;12.80;99.90;;;;;;5075696;28;21312;-74
2022/02/24 11:42:59;;;;;;;3.20;2.50;;;13.00;99.90;;;;;;5079106;28;20703;-74
2022/02/24 11:45:25;;;;;;;4.33;3.10;;;13.10;99.90;;;;;;5079248;28;20427;-74
2022/02/24 11:47:57;;;;;;;3.17;2.47;;;13.20;99.90;;;;;;5078857;28;20561;-75
2022/02/24 11:50:36;;;;;;;2.90;2.60;;;13.30;99.90;;;;;;5073351;28;20218;-75
2022/02/24 11:53:05;;;;;;;3.20;2.43;;;13.40;99.90;;;;;;5080329;28;20510;-75
2022/02/24 11:55:41;;;;;;;7.10;2.60;;;13.50;99.90;;;;;;5083077;28;21403;-74
2022/02/24 11:58:33;;;;;;;4.30;2.80;;;13.70;99.90;;;;;;5074594;28;20617;-75
2022/02/24 12:01:25;;;;;;;5.90;3.00;;;13.80;99.90;;;;;;5077252;28;20448;-75
2022/02/24 12:03:54;;;;;;;4.20;2.53;;;13.90;99.90;;;;;;5075547;28;20972;-75
2022/02/24 12:06:37;;;;;;;3.00;2.50;;;13.90;99.90;;;;;;5079539;28;20830;-75
2022/02/24 12:09:07;;;;;;;2.60;2.10;;;13.80;99.90;;;;;;5074343;28;20440;-75
2022/02/24 12:11:37;;;;;;;5.40;2.67;;;13.80;99.90;;;;;;5074146;28;20461;-76
2022/02/24 12:14:24;;;;;;;4.53;2.73;;;13.80;99.90;;;;;;5078935;28;20432;-75
2022/02/24 12:17:09;;;;;;;4.20;2.43;;;13.80;99.90;;;;;;5078364;28;20452;-75
2022/02/24 12:19:35;;;;;;;3.60;2.60;;;13.80;99.90;;;;;;5075383;28;20514;-75
2022/02/24 12:22:29;;;;;;;4.73;3.50;;;13.80;99.90;;;;;;5077115;28;20949;-76
2022/02/24 12:25:12;;;;;;;3.87;2.20;;;13.90;99.90;;;;;;5077156;28;20269;-74
2022/02/24 12:27:46;;;;;;;3.67;2.70;;;14.00;99.90;;;;;;5077246;28;20913;-75
2022/02/24 12:30:13;;;;;;;4.07;2.93;;;14.10;99.90;;;;;;5076117;28;20463;-74
2022/02/24 12:32:53;;;;;;;3.40;2.40;;;14.10;99.90;;;;;;5080367;28;20484;-72
2022/02/24 12:35:21;;;;;;;4.20;2.47;;;14.10;99.90;;;;;;5078407;28;20416;-73
2022/02/24 12:37:48;;;;;;;3.93;3.53;;;14.00;99.90;;;;;;5077645;28;20504;-73
2022/02/24 12:40:32;;;;;;;3.53;2.50;;;14.00;99.90;;;;;;5079141;28;20468;-73
2022/02/24 12:43:00;;;;;;;4.63;2.33;;;13.80;99.90;;;;;;5080713;28;20545;-72
2022/02/24 12:45:27;;;;;;;3.10;2.70;;;13.80;99.90;;;;;;5078386;28;20620;-72
2022/02/24 12:47:55;;;;;;;3.50;2.33;;;13.70;99.90;;;;;;5074530;28;21276;-73
2022/02/24 12:50:33;;;;;;;4.80;2.20;;;13.60;99.90;;;;;;5095373;28;20491;-72
2022/02/24 12:53:16;;;;;;;4.07;2.60;;;13.60;99.90;;;;;;5076804;28;20428;-72
2022/02/24 12:55:43;;;;;;;4.03;2.40;;;13.50;99.90;;;;;;5081610;28;20430;-72